Time;durP1;ratioP1;P1;durP2;ratioP2;P2;SDS_P1;SDS_P2;PMS_P1;PMS_P2;Temp;Humidity;BMP_temperature;BMP_pressure;BME280_temperature;BME280_humidity;BME280_pressure;Samples;Min_cycle;Max_cycle;Signal;HPM_P1;HPM_P2
2023/08/31 00:01:43;;;;;;;2.93;2.20;;;21.60;66.60;;;;;;5113355;27;43571;-71
2023/08/31 00:04:14;;;;;;;2.13;2.10;;;21.60;66.50;;;;;;5113000;27;43436;-71
2023/08/31 00:06:44;;;;;;;1.97;1.97;;;21.60;66.80;;;;;;5112710;27;43448;-70
2023/08/31 00:09:13;;;;;;;2.40;2.30;;;21.60;67.60;;;;;;5113171;27;43457;-70
2023/08/31 00:11:41;;;;;;;2.33;2.20;;;21.60;66.90;;;;;;5092150;27;45712;-70
2023/08/31 00:14:11;;;;;;;1.97;1.97;;;21.50;66.50;;;;;;5107392;27;43398;-71
2023/08/31 00:16:41;;;;;;;1.90;1.90;;;21.60;66.30;;;;;;5112845;27;43469;-70
2023/08/31 00:19:09;;;;;;;2.17;2.17;;;21.70;66.00;;;;;;5106947;27;43522;-69
2023/08/31 00:21:37;;;;;;;2.00;2.00;;;21.70;65.80;;;;;;5095418;27;45957;-70
2023/08/31 00:24:05;;;;;;;2.33;2.23;;;21.70;66.10;;;;;;5113182;27;43428;-69
2023/08/31 00:26:33;;;;;;;1.97;1.73;;;21.70;66.10;;;;;;5101873;27;43381;-70
2023/08/31 00:29:01;;;;;;;2.13;2.03;;;21.60;65.80;;;;;;5117020;27;43434;-70
2023/08/31 00:31:30;;;;;;;2.00;2.00;;;21.70;65.80;;;;;;5103935;27;46038;-70
2023/08/31 00:34:04;;;;;;;2.00;2.00;;;21.60;66.20;;;;;;5109640;27;44790;-70
2023/08/31 00:36:33;;;;;;;2.00;2.00;;;21.60;66.30;;;;;;5101419;27;43511;-69
2023/08/31 00:39:05;;;;;;;1.80;1.80;;;21.60;66.20;;;;;;5102394;27;43572;-69
2023/08/31 00:41:33;;;;;;;2.50;2.40;;;21.50;65.90;;;;;;5106890;27;46014;-70
2023/08/31 00:44:04;;;;;;;1.80;1.80;;;21.50;66.20;;;;;;5105635;27;44742;-70
2023/08/31 00:46:32;;;;;;;2.10;2.00;;;21.50;66.30;;;;;;5097666;27;43409;-70
2023/08/31 00:49:03;;;;;;;2.20;2.10;;;21.50;66.40;;;;;;5113581;27;43498;-70
2023/08/31 00:51:32;;;;;;;2.23;2.03;;;21.50;66.10;;;;;;5112506;27;45970;-70
2023/08/31 00:54:00;;;;;;;2.30;2.20;;;21.50;65.90;;;;;;5113533;27;43526;-72
2023/08/31 00:56:28;;;;;;;2.20;2.17;;;21.60;65.60;;;;;;5108465;27;43430;-73
2023/08/31 00:58:57;;;;;;;2.07;1.97;;;21.70;65.30;;;;;;5100617;27;43502;-72
2023/08/31 01:01:27;;;;;;;1.90;1.80;;;21.80;64.90;;;;;;5095718;27;45835;-72
2023/08/31 01:04:00;;;;;;;2.30;2.10;;;21.80;64.70;;;;;;5100401;27;44734;-66
2023/08/31 01:06:37;;;;;;;1.67;1.67;;;21.80;65.30;;;;;;5105226;27;43426;-67
2023/08/31 01:09:10;;;;;;;2.00;2.00;;;21.70;65.40;;;;;;5109909;27;43418;-66
2023/08/31 01:11:45;;;;;;;2.10;2.00;;;21.70;65.40;;;;;;5106661;27;46020;-65
2023/08/31 01:14:17;;;;;;;3.03;2.20;;;21.60;66.00;;;;;;5104853;27;45051;-65
2023/08/31 01:16:45;;;;;;;1.87;1.87;;;21.60;65.60;;;;;;5104570;27;43431;-65
2023/08/31 01:19:18;;;;;;;1.80;1.70;;;21.60;65.90;;;;;;5104984;27;43632;-65
2023/08/31 01:21:48;;;;;;;1.70;1.70;;;21.50;66.00;;;;;;5112277;27;43692;-66
2023/08/31 01:24:19;;;;;;;1.90;1.80;;;21.50;65.90;;;;;;5096712;27;44704;-65
2023/08/31 01:26:48;;;;;;;2.20;2.10;;;21.50;65.90;;;;;;5107190;27;43531;-65
2023/08/31 01:29:19;;;;;;;1.80;1.70;;;21.50;66.20;;;;;;5109492;27;43326;-65
2023/08/31 01:31:47;;;;;;;1.80;1.80;;;21.50;66.20;;;;;;5106157;27;45702;-66
2023/08/31 01:34:15;;;;;;;1.90;1.80;;;21.50;66.30;;;;;;5104753;27;45161;-65
2023/08/31 01:36:45;;;;;;;1.80;1.80;;;21.50;66.10;;;;;;5108023;27;43369;-65
2023/08/31 01:39:15;;;;;;;1.70;1.60;;;21.50;65.90;;;;;;5096349;27;44010;-66
2023/08/31 01:41:49;;;;;;;1.80;1.80;;;21.60;65.60;;;;;;5093022;27;46188;-65
2023/08/31 01:44:17;;;;;;;1.60;1.60;;;21.70;65.20;;;;;;5098668;27;45132;-65
2023/08/31 01:46:47;;;;;;;1.93;1.77;;;21.80;64.90;;;;;;5097265;27;43412;-67
2023/08/31 01:49:15;;;;;;;1.93;1.70;;;21.80;64.80;;;;;;5112315;27;43424;-65
2023/08/31 01:51:43;;;;;;;1.90;1.80;;;21.80;65.20;;;;;;5095975;27;45951;-65
2023/08/31 01:54:11;;;;;;;1.87;1.87;;;21.70;65.40;;;;;;5104808;27;43426;-65
2023/08/31 01:56:39;;;;;;;2.20;2.00;;;21.70;65.20;;;;;;5096561;27;44022;-66
2023/08/31 01:59:09;;;;;;;2.00;1.90;;;21.60;65.90;;;;;;5109996;27;43501;-66
2023/08/31 02:01:37;;;;;;;1.67;1.67;;;21.60;65.60;;;;;;5103102;27;44021;-66
2023/08/31 02:04:06;;;;;;;1.70;1.70;;;21.60;65.80;;;;;;5107870;27;43692;-66
2023/08/31 02:06:34;;;;;;;2.20;2.00;;;21.50;65.90;;;;;;5105947;27;44032;-67
2023/08/31 02:09:02;;;;;;;1.70;1.60;;;21.50;65.50;;;;;;5103985;27;43537;-67
2023/08/31 02:11:31;;;;;;;1.80;1.80;;;21.50;65.80;;;;;;5105446;27;45821;-66
2023/08/31 02:13:59;;;;;;;1.70;1.70;;;21.50;65.90;;;;;;5099677;27;45677;-70
2023/08/31 02:16:29;;;;;;;1.70;1.67;;;21.50;66.30;;;;;;5097712;27;43465;-71
2023/08/31 02:18:57;;;;;;;1.87;1.87;;;21.50;66.00;;;;;;5106573;27;43471;-70
2023/08/31 02:21:25;;;;;;;1.90;1.80;;;21.50;65.80;;;;;;5114226;27;43594;-70
2023/08/31 02:23:53;;;;;;;1.80;1.70;;;21.50;65.60;;;;;;5108164;27;43446;-70
2023/08/31 02:26:22;;;;;;;1.97;1.90;;;21.60;65.30;;;;;;5108426;27;43406;-70
2023/08/31 02:28:50;;;;;;;2.03;2.00;;;21.70;64.80;;;;;;5093445;27;43420;-70
2023/08/31 02:31:18;;;;;;;1.80;1.73;;;21.80;65.30;;;;;;5107445;27;43830;-70
2023/08/31 02:33:48;;;;;;;2.20;2.10;;;21.80;64.40;;;;;;5113228;27;43390;-70
2023/08/31 02:36:16;;;;;;;2.13;2.03;;;21.80;64.90;;;;;;5114265;27;43311;-70
2023/08/31 02:38:44;;;;;;;2.00;1.90;;;21.70;65.00;;;;;;5104001;27;43351;-70
2023/08/31 02:41:13;;;;;;;1.80;1.80;;;21.70;64.90;;;;;;5102248;27;43828;-70
2023/08/31 02:43:42;;;;;;;1.93;1.90;;;21.60;65.00;;;;;;5103739;27;44415;-68
2023/08/31 02:46:10;;;;;;;2.00;1.90;;;21.60;65.40;;;;;;5095345;27;43448;-68
2023/08/31 02:48:39;;;;;;;2.03;1.93;;;21.60;65.60;;;;;;5097472;27;43488;-68
2023/08/31 02:51:10;;;;;;;2.03;1.93;;;21.50;65.50;;;;;;5087689;27;45945;-69
2023/08/31 02:53:38;;;;;;;1.70;1.70;;;21.50;65.30;;;;;;5087940;27;44995;-69
2023/08/31 02:56:06;;;;;;;1.97;1.87;;;21.50;65.60;;;;;;5102019;27;43419;-68
2023/08/31 02:58:34;;;;;;;1.60;1.60;;;21.50;65.80;;;;;;5102291;27;43384;-69
2023/08/31 03:01:11;;;;;;;2.10;2.00;;;21.50;65.90;;;;;;5108928;27;43598;-69
2023/08/31 03:03:42;;;;;;;2.00;2.00;;;21.50;65.70;;;;;;5087717;27;46469;-70
2023/08/31 03:06:12;;;;;;;1.83;1.73;;;21.40;65.40;;;;;;5093498;27;43404;-69
2023/08/31 03:08:41;;;;;;;2.07;2.07;;;21.40;65.80;;;;;;5100716;27;43530;-69
2023/08/31 03:11:09;;;;;;;1.73;1.73;;;21.40;65.90;;;;;;5102129;27;45939;-69
2023/08/31 03:13:37;;;;;;;2.00;1.90;;;21.40;66.00;;;;;;5099515;27;44850;-69
2023/08/31 03:16:05;;;;;;;2.00;2.00;;;21.40;65.70;;;;;;5099900;27;43399;-69
2023/08/31 03:18:33;;;;;;;2.07;1.90;;;21.50;65.60;;;;;;5102200;27;43379;-69
2023/08/31 03:21:02;;;;;;;2.30;2.10;;;21.50;65.30;;;;;;5109212;27;44641;-68
2023/08/31 03:23:31;;;;;;;2.13;2.03;;;21.60;64.90;;;;;;5094129;27;45112;-69
2023/08/31 03:25:59;;;;;;;2.07;1.97;;;21.80;64.50;;;;;;5094881;27;43405;-68
2023/08/31 03:28:27;;;;;;;2.10;2.00;;;21.80;64.20;;;;;;5090761;27;43652;-69
2023/08/31 03:30:56;;;;;;;2.00;1.90;;;21.80;64.30;;;;;;5102758;27;44080;-69
2023/08/31 03:33:25;;;;;;;2.73;1.87;;;21.80;64.70;;;;;;5089675;27;44821;-72
2023/08/31 03:35:53;;;;;;;2.10;2.00;;;21.70;65.20;;;;;;5090229;27;43608;-68
2023/08/31 03:38:21;;;;;;;1.80;1.80;;;21.70;64.60;;;;;;5094913;27;43547;-69
2023/08/31 03:40:57;;;;;;;1.77;1.77;;;21.70;64.90;;;;;;5096916;27;46120;-69
2023/08/31 03:43:25;;;;;;;1.67;1.67;;;21.60;65.10;;;;;;5097210;27;45161;-72
2023/08/31 03:45:56;;;;;;;1.97;1.97;;;21.60;65.30;;;;;;5092507;27;44429;-72
2023/08/31 03:48:24;;;;;;;2.23;2.10;;;21.50;65.10;;;;;;5094875;27;43469;-71
2023/08/31 03:50:52;;;;;;;1.90;1.83;;;21.50;65.10;;;;;;5100060;27;44032;-71
2023/08/31 03:53:22;;;;;;;2.00;1.90;;;21.50;65.40;;;;;;5101773;27;44757;-72
2023/08/31 03:55:54;;;;;;;2.00;2.00;;;21.50;65.60;;;;;;5100524;27;43455;-72
2023/08/31 03:58:25;;;;;;;1.70;1.70;;;21.50;65.60;;;;;;5096243;27;43561;-72
2023/08/31 04:00:54;;;;;;;2.10;2.00;;;21.50;65.40;;;;;;5096234;27;44051;-72
2023/08/31 04:03:23;;;;;;;2.37;2.27;;;21.50;65.30;;;;;;5086766;27;44715;-72
2023/08/31 04:05:55;;;;;;;1.93;1.93;;;21.60;65.10;;;;;;5099415;27;43931;-71
2023/08/31 04:08:23;;;;;;;2.00;1.90;;;21.70;64.70;;;;;;5109057;27;43954;-71
2023/08/31 04:10:51;;;;;;;1.77;1.77;;;21.80;64.30;;;;;;5100783;27;44173;-72
2023/08/31 04:13:21;;;;;;;2.30;2.20;;;21.80;64.20;;;;;;5098866;27;44302;-72
2023/08/31 04:15:50;;;;;;;1.70;1.70;;;21.70;64.50;;;;;;5098516;27;43401;-72
2023/08/31 04:18:18;;;;;;;1.90;1.80;;;21.70;64.70;;;;;;5104090;27;43470;-71
2023/08/31 04:20:50;;;;;;;1.70;1.60;;;21.70;64.90;;;;;;5108806;27;44065;-71
2023/08/31 04:23:18;;;;;;;1.90;1.90;;;21.60;65.00;;;;;;5108480;27;43410;-72
2023/08/31 04:25:47;;;;;;;1.83;1.73;;;21.60;65.90;;;;;;5109038;27;43402;-72
2023/08/31 04:28:15;;;;;;;2.07;1.97;;;21.50;65.30;;;;;;5108501;27;43418;-72
2023/08/31 04:30:45;;;;;;;1.73;1.70;;;21.50;65.30;;;;;;5091666;27;43563;-72
2023/08/31 04:33:14;;;;;;;1.90;1.90;;;21.50;65.40;;;;;;5101709;27;43969;-72
2023/08/31 04:35:43;;;;;;;3.30;2.10;;;21.50;65.50;;;;;;5108546;27;43357;-72
2023/08/31 04:38:11;;;;;;;1.93;1.93;;;21.40;65.50;;;;;;5106300;27;43405;-72
2023/08/31 04:40:43;;;;;;;2.17;2.07;;;21.40;65.20;;;;;;5086044;27;45760;-70
2023/08/31 04:43:11;;;;;;;1.83;1.83;;;21.50;65.00;;;;;;5103153;27;43363;-69
2023/08/31 04:45:39;;;;;;;2.30;1.80;;;21.60;64.70;;;;;;5107586;27;43591;-68
2023/08/31 04:48:08;;;;;;;1.97;1.97;;;21.80;64.30;;;;;;5097200;27;43608;-69
2023/08/31 04:50:37;;;;;;;2.13;2.03;;;22.00;63.70;;;;;;5106822;27;43928;-69
2023/08/31 04:53:05;;;;;;;1.90;1.80;;;22.20;63.00;;;;;;5107354;27;43418;-71
2023/08/31 04:55:33;;;;;;;1.60;1.60;;;22.40;62.40;;;;;;5091486;27;43737;-73
2023/08/31 04:58:01;;;;;;;1.93;1.83;;;22.60;62.00;;;;;;5098668;27;43501;-70
2023/08/31 05:00:29;;;;;;;2.10;2.00;;;22.70;61.60;;;;;;5101932;27;46458;-71
2023/08/31 05:02:58;;;;;;;1.97;1.80;;;22.70;61.30;;;;;;5099765;27;44972;-71
2023/08/31 05:05:26;;;;;;;1.80;1.70;;;22.80;60.90;;;;;;5107571;27;43324;-71
2023/08/31 05:07:55;;;;;;;1.87;1.77;;;22.90;60.90;;;;;;5093970;27;43545;-71
2023/08/31 05:10:23;;;;;;;1.90;1.80;;;22.80;60.90;;;;;;5087204;27;44613;-72
2023/08/31 05:12:51;;;;;;;4.87;2.27;;;22.70;60.90;;;;;;5108039;27;43865;-72
2023/08/31 05:15:19;;;;;;;2.20;2.10;;;22.60;61.40;;;;;;5109481;27;43582;-70
2023/08/31 05:17:48;;;;;;;1.83;1.80;;;22.50;61.70;;;;;;5101970;27;43406;-72
2023/08/31 05:20:16;;;;;;;2.13;1.93;;;22.40;61.80;;;;;;5106072;27;43844;-73
2023/08/31 05:22:44;;;;;;;2.20;2.10;;;22.30;62.20;;;;;;5111617;27;43429;-72
2023/08/31 05:25:14;;;;;;;1.97;1.90;;;22.10;62.70;;;;;;5098032;27;43434;-71
2023/08/31 05:27:42;;;;;;;2.20;2.10;;;22.10;62.90;;;;;;5097116;27;43571;-72
2023/08/31 05:30:12;;;;;;;1.97;1.80;;;22.00;62.80;;;;;;5106813;27;43585;-72
2023/08/31 05:32:43;;;;;;;1.73;1.63;;;21.90;63.20;;;;;;5095662;27;43574;-72
2023/08/31 05:35:11;;;;;;;2.37;2.17;;;21.90;63.80;;;;;;5096605;27;43427;-71
2023/08/31 05:37:46;;;;;;;2.07;1.83;;;21.80;63.40;;;;;;5111305;27;43364;-72
2023/08/31 05:40:16;;;;;;;1.80;1.70;;;21.80;63.50;;;;;;5111476;27;43602;-72
2023/08/31 05:42:45;;;;;;;1.80;1.80;;;21.80;63.30;;;;;;5108206;27;43323;-72
2023/08/31 05:45:13;;;;;;;1.77;1.77;;;21.90;63.10;;;;;;5104371;27;43412;-72
2023/08/31 05:47:41;;;;;;;1.70;1.60;;;22.00;62.90;;;;;;5109537;27;43451;-72
2023/08/31 05:50:10;;;;;;;1.97;1.90;;;22.10;63.40;;;;;;5110993;27;43594;-71
2023/08/31 05:52:44;;;;;;;2.30;2.20;;;22.00;62.50;;;;;;5106044;27;44722;-72
2023/08/31 05:55:12;;;;;;;1.93;1.83;;;22.00;63.00;;;;;;5111108;27;43324;-66
2023/08/31 05:57:42;;;;;;;1.80;1.80;;;21.90;63.20;;;;;;5111903;27;44001;-66
2023/08/31 06:00:17;;;;;;;1.80;1.70;;;21.80;63.30;;;;;;5106835;27;43695;-66
2023/08/31 06:02:48;;;;;;;1.90;1.90;;;21.80;63.50;;;;;;5107076;27;43847;-66
2023/08/31 06:05:16;;;;;;;1.97;1.87;;;21.70;63.90;;;;;;5089763;27;43378;-71
2023/08/31 06:07:46;;;;;;;2.07;1.97;;;21.70;64.10;;;;;;5109301;27;43477;-72
2023/08/31 06:10:15;;;;;;;1.90;1.80;;;21.60;63.90;;;;;;5104887;27;43619;-71
2023/08/31 06:12:44;;;;;;;1.70;1.70;;;21.60;64.00;;;;;;5089107;27;44859;-72
2023/08/31 06:15:12;;;;;;;1.67;1.67;;;21.60;64.30;;;;;;5108116;27;43407;-73
2023/08/31 06:17:41;;;;;;;2.10;2.00;;;21.60;64.60;;;;;;5110400;27;43505;-72
2023/08/31 06:20:10;;;;;;;2.10;1.90;;;21.50;64.40;;;;;;5108630;27;43883;-72
2023/08/31 06:22:38;;;;;;;1.70;1.70;;;21.50;64.40;;;;;;5101758;27;43628;-71
2023/08/31 06:25:07;;;;;;;1.80;1.70;;;21.60;64.20;;;;;;5102222;27;43445;-71
2023/08/31 06:27:36;;;;;;;2.30;2.20;;;21.70;63.90;;;;;;5095494;27;43884;-72
2023/08/31 06:30:08;;;;;;;2.00;1.90;;;21.80;63.50;;;;;;5102464;27;43941;-72
2023/08/31 06:32:36;;;;;;;4.47;2.20;;;21.80;63.20;;;;;;5109270;27;43453;-72
2023/08/31 06:35:05;;;;;;;2.00;1.90;;;21.80;63.70;;;;;;5110466;27;43372;-72
2023/08/31 06:37:33;;;;;;;1.80;1.70;;;21.70;63.90;;;;;;5110914;27;43436;-72
2023/08/31 06:40:01;;;;;;;1.90;1.90;;;21.70;64.10;;;;;;5102221;27;45575;-72
2023/08/31 06:42:29;;;;;;;2.23;2.20;;;21.60;64.00;;;;;;5102601;27;43468;-73
2023/08/31 06:44:57;;;;;;;2.00;1.90;;;21.60;64.30;;;;;;5110060;27;43476;-72
2023/08/31 06:47:26;;;;;;;2.03;1.97;;;21.50;64.50;;;;;;5095931;27;43952;-72
2023/08/31 06:49:54;;;;;;;2.30;2.20;;;21.50;64.70;;;;;;5103632;27;43759;-71
2023/08/31 06:52:22;;;;;;;2.17;2.07;;;21.50;64.60;;;;;;5095154;27;45912;-72
2023/08/31 06:54:59;;;;;;;1.90;1.80;;;21.50;64.60;;;;;;5096365;27;43522;-71
2023/08/31 06:57:28;;;;;;;1.67;1.67;;;21.50;64.30;;;;;;5102776;27;43450;-72
2023/08/31 06:59:58;;;;;;;2.00;2.00;;;21.60;64.00;;;;;;5110205;27;43753;-72
2023/08/31 07:02:28;;;;;;;1.87;1.87;;;21.60;64.10;;;;;;5106434;27;43429;-73
2023/08/31 07:04:56;;;;;;;2.40;2.20;;;21.60;64.40;;;;;;5110823;27;43797;-67
2023/08/31 07:07:25;;;;;;;2.00;1.90;;;21.60;64.30;;;;;;5109482;27;43424;-66
2023/08/31 07:09:54;;;;;;;1.93;1.83;;;21.50;64.20;;;;;;5109537;27;43936;-66
2023/08/31 07:12:22;;;;;;;2.10;2.00;;;21.50;64.40;;;;;;5110426;27;43419;-66
2023/08/31 07:14:50;;;;;;;2.00;1.90;;;21.50;64.60;;;;;;5113551;27;44038;-70
2023/08/31 07:17:19;;;;;;;2.27;2.00;;;21.50;64.80;;;;;;5115077;27;43466;-71
2023/08/31 07:19:49;;;;;;;1.70;1.60;;;21.50;64.70;;;;;;5114948;27;43652;-70
2023/08/31 07:22:17;;;;;;;1.90;1.80;;;21.50;64.70;;;;;;5106815;27;43403;-70
2023/08/31 07:24:45;;;;;;;2.20;2.00;;;21.50;64.30;;;;;;5110759;27;43901;-70
2023/08/31 07:27:14;;;;;;;2.40;2.20;;;21.60;64.10;;;;;;5113091;27;43372;-70
2023/08/31 07:29:43;;;;;;;3.67;2.10;;;21.60;64.40;;;;;;5114688;27;43840;-70
2023/08/31 07:32:11;;;;;;;2.13;2.03;;;21.50;64.30;;;;;;5113976;27;43499;-70
2023/08/31 07:34:39;;;;;;;2.50;2.30;;;21.50;64.10;;;;;;5114232;27;43343;-70
2023/08/31 07:37:10;;;;;;;2.00;1.90;;;21.50;64.20;;;;;;5113901;27;43371;-70
2023/08/31 07:39:38;;;;;;;2.13;2.03;;;21.50;64.60;;;;;;5093646;27;45753;-70
2023/08/31 07:46:06;;;;;;;1.87;1.87;;;21.40;64.60;;;;;;5107480;27;43850;-69
2023/08/31 07:48:35;;;;;;;2.07;1.97;;;21.50;64.50;;;;;;5114084;27;43409;-69
2023/08/31 07:51:03;;;;;;;2.17;2.00;;;21.50;64.10;;;;;;5099099;27;45753;-69
2023/08/31 07:53:32;;;;;;;2.57;1.77;;;21.50;64.20;;;;;;5101887;27;44584;-69
2023/08/31 07:56:00;;;;;;;2.10;2.00;;;21.50;64.50;;;;;;5107792;27;43440;-70
2023/08/31 07:58:28;;;;;;;2.63;2.47;;;21.50;64.30;;;;;;5099412;27;43399;-70
2023/08/31 08:00:56;;;;;;;2.50;2.30;;;21.50;64.30;;;;;;5114774;27;43618;-70
2023/08/31 08:03:25;;;;;;;2.10;2.03;;;21.50;64.70;;;;;;5115215;27;43367;-70
2023/08/31 08:05:53;;;;;;;2.30;2.10;;;21.50;64.90;;;;;;5096822;27;44254;-70
2023/08/31 08:08:21;;;;;;;3.00;2.27;;;21.40;64.90;;;;;;5104926;27;43676;-70
2023/08/31 08:10:54;;;;;;;2.30;2.10;;;21.40;64.60;;;;;;5114816;27;43841;-70
2023/08/31 08:13:22;;;;;;;2.10;2.00;;;21.40;64.90;;;;;;5110000;27;43540;-67
2023/08/31 08:15:51;;;;;;;2.10;2.00;;;21.40;65.10;;;;;;5101350;27;43402;-66
2023/08/31 08:18:19;;;;;;;2.03;1.93;;;21.40;65.20;;;;;;5105222;27;43448;-66
2023/08/31 08:20:49;;;;;;;2.23;2.03;;;21.30;65.00;;;;;;5106836;27;43790;-66
2023/08/31 08:23:17;;;;;;;2.30;2.20;;;21.30;64.60;;;;;;5105129;27;43486;-66
2023/08/31 08:25:45;;;;;;;2.13;2.00;;;21.40;64.50;;;;;;5109798;27;43330;-66
2023/08/31 08:28:14;;;;;;;2.83;2.20;;;21.50;64.20;;;;;;5109908;27;43455;-67
2023/08/31 08:30:42;;;;;;;2.33;2.17;;;21.60;63.80;;;;;;5109313;27;43608;-66
2023/08/31 08:33:10;;;;;;;3.77;2.17;;;21.70;63.50;;;;;;5101680;27;43411;-66
2023/08/31 08:35:39;;;;;;;1.70;1.60;;;21.70;63.90;;;;;;5103614;27;43552;-65
2023/08/31 08:38:07;;;;;;;3.20;2.23;;;21.60;64.10;;;;;;5103623;27;43869;-65
2023/08/31 08:40:36;;;;;;;2.00;1.90;;;21.50;64.30;;;;;;5106401;27;43622;-66
2023/08/31 08:43:07;;;;;;;2.73;2.53;;;21.50;64.00;;;;;;5108902;27;43973;-65
2023/08/31 08:45:41;;;;;;;3.00;2.10;;;21.50;64.30;;;;;;5109322;27;43500;-65
2023/08/31 08:48:09;;;;;;;2.00;2.00;;;21.40;64.60;;;;;;5104381;27;43368;-64
2023/08/31 08:50:38;;;;;;;3.53;2.00;;;21.40;64.80;;;;;;5106930;27;43952;-65
2023/08/31 08:53:06;;;;;;;2.30;2.10;;;21.40;64.70;;;;;;5103333;27;44082;-65
2023/08/31 08:55:48;;;;;;;2.30;2.10;;;21.40;64.30;;;;;;5111086;27;43428;-65
2023/08/31 08:58:24;;;;;;;2.60;2.33;;;21.40;64.20;;;;;;5109524;27;43341;-67
2023/08/31 09:00:55;;;;;;;2.20;2.10;;;21.40;64.40;;;;;;5097260;27;45684;-66
2023/08/31 09:03:24;;;;;;;2.50;2.30;;;21.40;64.60;;;;;;5110118;27;43437;-66
2023/08/31 09:05:52;;;;;;;2.33;2.23;;;21.40;64.40;;;;;;5111286;27;43362;-66
2023/08/31 09:08:26;;;;;;;2.37;2.27;;;21.40;64.10;;;;;;5097422;27;43403;-66
2023/08/31 09:10:56;;;;;;;1.83;1.73;;;21.40;64.50;;;;;;5112837;27;43731;-66
2023/08/31 09:13:27;;;;;;;2.63;2.00;;;21.40;64.70;;;;;;5094634;27;44965;-67
2023/08/31 09:15:56;;;;;;;1.93;1.93;;;21.40;64.80;;;;;;5099802;27;43363;-67
2023/08/31 09:18:25;;;;;;;2.30;2.20;;;21.30;64.80;;;;;;5110088;27;43447;-66
2023/08/31 09:20:54;;;;;;;2.20;2.10;;;21.30;64.30;;;;;;5111243;27;43703;-66
2023/08/31 09:23:22;;;;;;;1.97;1.87;;;21.30;64.60;;;;;;5111480;27;43414;-70
2023/08/31 09:25:53;;;;;;;2.20;2.00;;;21.30;64.60;;;;;;5100442;27;43488;-70
2023/08/31 09:28:22;;;;;;;2.20;2.10;;;21.30;64.60;;;;;;5106147;27;43743;-70
2023/08/31 09:30:52;;;;;;;3.10;2.30;;;21.20;63.80;;;;;;5103809;27;45831;-70
2023/08/31 09:33:21;;;;;;;2.50;2.30;;;21.30;63.50;;;;;;5094573;27;44698;-66
2023/08/31 09:35:51;;;;;;;2.33;2.13;;;21.40;63.20;;;;;;5106836;27;43488;-66
2023/08/31 09:38:19;;;;;;;2.73;2.43;;;21.50;62.80;;;;;;5090916;27;43579;-68
2023/08/31 09:40:47;;;;;;;2.10;2.00;;;21.60;62.60;;;;;;5106185;27;44064;-66
2023/08/31 09:43:20;;;;;;;2.53;2.33;;;21.60;62.70;;;;;;5112006;27;43525;-67
2023/08/31 09:45:48;;;;;;;1.90;1.80;;;21.60;63.20;;;;;;5097286;27;43504;-66
2023/08/31 09:48:17;;;;;;;2.93;2.20;;;21.60;63.40;;;;;;5099817;27;43430;-66
2023/08/31 09:50:46;;;;;;;2.07;1.90;;;21.50;63.00;;;;;;5100214;27;43605;-65
2023/08/31 09:53:15;;;;;;;2.40;2.30;;;21.50;63.20;;;;;;5092346;27;44726;-68
2023/08/31 09:55:43;;;;;;;2.10;2.00;;;21.50;63.60;;;;;;5105916;27;43492;-66
2023/08/31 09:58:11;;;;;;;2.37;2.17;;;21.40;63.70;;;;;;5092839;27;43397;-66
2023/08/31 10:00:44;;;;;;;3.63;2.40;;;21.40;63.80;;;;;;5110404;27;44050;-66
2023/08/31 10:03:14;;;;;;;3.07;2.43;;;21.40;63.10;;;;;;5091275;27;45036;-66
2023/08/31 10:05:47;;;;;;;2.00;1.90;;;21.40;63.60;;;;;;5106520;27;43361;-66
2023/08/31 10:08:15;;;;;;;2.10;2.00;;;21.40;63.80;;;;;;5100505;27;43487;-66
2023/08/31 10:10:43;;;;;;;2.23;2.03;;;21.40;63.80;;;;;;5106159;27;43859;-66
2023/08/31 10:13:12;;;;;;;2.60;2.40;;;21.30;63.50;;;;;;5110847;27;43656;-66
2023/08/31 10:15:40;;;;;;;2.33;2.00;;;21.40;62.90;;;;;;5110213;27;43480;-66
2023/08/31 10:18:08;;;;;;;3.93;2.30;;;21.40;63.20;;;;;;5109870;27;43416;-66
2023/08/31 10:20:36;;;;;;;2.80;2.60;;;21.50;62.00;;;;;;5108345;27;43958;-67
2023/08/31 10:23:06;;;;;;;2.57;2.43;;;21.60;61.70;;;;;;5098408;27;44827;-66
2023/08/31 10:26:01;;;;;;;2.67;2.47;;;21.60;61.30;;;;;;5108621;27;43409;-66
2023/08/31 10:28:29;;;;;;;2.53;2.33;;;21.60;62.10;;;;;;5098796;27;43625;-65
2023/08/31 10:31:04;;;;;;;2.50;2.20;;;21.60;62.50;;;;;;5107173;27;44186;-65
2023/08/31 10:33:32;;;;;;;2.50;2.33;;;21.50;62.30;;;;;;5109961;27;43438;-65
2023/08/31 10:36:00;;;;;;;2.27;2.07;;;21.50;61.70;;;;;;5110881;27;43379;-66
2023/08/31 10:38:31;;;;;;;3.23;2.40;;;21.50;62.50;;;;;;5106757;27;43364;-65
2023/08/31 10:41:19;;;;;;;3.20;2.50;;;21.50;62.70;;;;;;5097525;27;43926;-66
2023/08/31 10:43:50;;;;;;;3.03;2.30;;;21.40;62.80;;;;;;5106952;27;43407;-66
2023/08/31 10:46:28;;;;;;;3.40;3.10;;;21.40;62.60;;;;;;5108773;27;43414;-67
2023/08/31 10:48:57;;;;;;;2.33;2.13;;;21.40;62.60;;;;;;5101161;27;43555;-65
2023/08/31 10:51:26;;;;;;;2.20;2.10;;;21.30;62.90;;;;;;5107451;27;43607;-65
2023/08/31 10:54:09;;;;;;;2.47;2.27;;;21.40;63.10;;;;;;5106399;27;43499;-66
2023/08/31 10:57:04;;;;;;;2.40;2.30;;;21.30;63.10;;;;;;5106290;27;43825;-65
2023/08/31 10:59:46;;;;;;;2.50;2.40;;;21.30;62.00;;;;;;5096498;27;43499;-65
2023/08/31 11:02:38;;;;;;;2.43;2.33;;;21.30;61.70;;;;;;5096939;27;43942;-65
2023/08/31 11:05:09;;;;;;;3.50;2.13;;;21.50;61.20;;;;;;5088073;27;43549;-65
2023/08/31 11:07:38;;;;;;;2.87;2.67;;;21.50;60.80;;;;;;5098860;27;44160;-65
2023/08/31 11:10:11;;;;;;;3.10;2.50;;;21.60;60.80;;;;;;5109702;27;43673;-66
2023/08/31 11:12:40;;;;;;;2.13;2.03;;;21.60;61.40;;;;;;5109643;27;43901;-66
2023/08/31 11:15:08;;;;;;;2.90;2.37;;;21.50;61.70;;;;;;5110185;27;43379;-66
2023/08/31 11:17:40;;;;;;;2.63;2.13;;;21.50;61.50;;;;;;5105078;27;43410;-66
2023/08/31 11:20:09;;;;;;;2.43;2.33;;;21.50;61.10;;;;;;5091800;27;43564;-66
2023/08/31 11:22:39;;;;;;;2.67;2.47;;;21.40;61.70;;;;;;5097361;27;45641;-66
2023/08/31 11:25:10;;;;;;;2.20;2.00;;;21.40;61.90;;;;;;5107365;27;43379;-66
2023/08/31 11:27:38;;;;;;;2.30;2.10;;;21.40;61.90;;;;;;5108445;27;43444;-66
2023/08/31 11:30:13;;;;;;;2.40;2.30;;;21.30;61.30;;;;;;5108323;27;43435;-66
2023/08/31 11:32:46;;;;;;;2.10;2.00;;;21.30;61.70;;;;;;5103563;27;43758;-65
2023/08/31 11:35:15;;;;;;;1.87;1.80;;;21.30;62.00;;;;;;5107980;27;43465;-65
2023/08/31 11:37:43;;;;;;;2.70;2.50;;;21.30;62.70;;;;;;5094379;27;43402;-65
2023/08/31 11:40:14;;;;;;;2.67;2.40;;;21.30;62.00;;;;;;5106082;27;43359;-65
2023/08/31 11:42:42;;;;;;;2.40;2.20;;;21.30;61.90;;;;;;5097803;27;45642;-66
2023/08/31 11:45:11;;;;;;;2.60;2.40;;;21.30;61.10;;;;;;5110898;27;43501;-70
2023/08/31 11:47:39;;;;;;;2.30;2.20;;;21.40;60.70;;;;;;5114478;27;43431;-69
2023/08/31 11:50:08;;;;;;;2.00;1.90;;;21.50;60.20;;;;;;5106898;27;43588;-70
2023/08/31 11:52:36;;;;;;;2.40;2.20;;;21.50;59.80;;;;;;5115234;27;43606;-70
2023/08/31 11:55:09;;;;;;;3.70;2.40;;;21.50;60.50;;;;;;5106111;27;43479;-72
2023/08/31 11:57:38;;;;;;;5.60;2.80;;;21.50;61.00;;;;;;5100757;27;43363;-72
2023/08/31 12:00:10;;;;;;;2.93;2.50;;;21.50;61.10;;;;;;5098745;27;43956;-71
2023/08/31 12:02:39;;;;;;;2.80;2.20;;;21.50;60.50;;;;;;5105082;27;44200;-71
2023/08/31 12:05:07;;;;;;;2.57;2.43;;;21.40;61.00;;;;;;5104333;27;43398;-71
2023/08/31 12:07:40;;;;;;;2.20;2.10;;;21.40;61.40;;;;;;5103089;27;43433;-71
2023/08/31 12:10:09;;;;;;;2.67;2.30;;;21.40;61.60;;;;;;5104690;27;44061;-70
2023/08/31 12:12:38;;;;;;;2.50;2.30;;;21.30;61.60;;;;;;5104454;27;43930;-71
2023/08/31 12:15:07;;;;;;;2.07;1.97;;;21.30;60.80;;;;;;5105503;27;43974;-71
2023/08/31 12:17:38;;;;;;;2.37;2.27;;;21.30;60.80;;;;;;5101333;27;43399;-71
2023/08/31 12:20:09;;;;;;;3.83;2.20;;;21.40;60.60;;;;;;5105985;27;43387;-72
2023/08/31 12:22:39;;;;;;;2.20;2.10;;;21.40;61.20;;;;;;5110639;27;43603;-71
2023/08/31 12:25:07;;;;;;;2.30;2.10;;;21.40;61.30;;;;;;5109954;27;43437;-70
2023/08/31 12:27:40;;;;;;;2.50;2.17;;;21.40;61.10;;;;;;5091065;27;43860;-71
2023/08/31 12:30:09;;;;;;;2.43;2.23;;;21.40;60.90;;;;;;5106537;27;43425;-72
2023/08/31 12:32:37;;;;;;;1.90;1.80;;;21.40;61.50;;;;;;5093000;27;43812;-73
2023/08/31 12:35:06;;;;;;;2.73;2.30;;;21.40;61.70;;;;;;5109099;27;44507;-72
2023/08/31 12:37:34;;;;;;;3.50;2.13;;;21.40;61.80;;;;;;5105832;27;43341;-71
2023/08/31 12:40:05;;;;;;;2.20;2.10;;;21.30;61.10;;;;;;5106060;27;43484;-71
2023/08/31 12:42:33;;;;;;;2.20;2.00;;;21.30;61.50;;;;;;5109173;27;44063;-73
2023/08/31 12:45:05;;;;;;;2.70;2.40;;;21.30;62.50;;;;;;5112123;27;43439;-72
2023/08/31 12:47:33;;;;;;;3.37;2.53;;;21.30;61.70;;;;;;5110701;27;43420;-73
2023/08/31 12:50:03;;;;;;;2.70;2.00;;;21.20;61.50;;;;;;5109469;27;43444;-72
2023/08/31 12:52:31;;;;;;;2.10;2.00;;;21.20;60.50;;;;;;5102230;27;43606;-72
2023/08/31 12:54:59;;;;;;;2.57;2.37;;;21.30;60.40;;;;;;5109203;27;43407;-69
2023/08/31 12:57:26;;;;;;;2.43;2.33;;;21.40;60.20;;;;;;5106444;27;43358;-68
2023/08/31 12:59:54;;;;;;;2.30;2.20;;;21.50;60.00;;;;;;5099462;27;43355;-69
2023/08/31 13:02:24;;;;;;;2.20;2.10;;;21.50;60.20;;;;;;5091900;27;45658;-69
2023/08/31 13:04:52;;;;;;;2.30;2.20;;;21.50;60.80;;;;;;5093550;27;45040;-66